Time;durP1;ratioP1;P1;durP2;ratioP2;P2;SDS_P1;SDS_P2;PMS_P1;PMS_P2;Temp;Humidity;BMP_temperature;BMP_pressure;BME280_temperature;BME280_humidity;BME280_pressure;Samples;Min_cycle;Max_cycle;Signal;HPM_P1;HPM_P2
2022/03/11 00:00:55;;;;;;;14.07;12.03;;;8.20;45.20;;;10.42;38.92;102372.75;5033275;28;20195;-50
2022/03/11 00:03:23;;;;;;;13.43;11.73;;;8.20;45.10;;;10.33;38.87;102369.16;5033252;28;20218;-48
2022/03/11 00:05:52;;;;;;;13.03;11.47;;;8.10;45.00;;;10.26;39.23;102368.00;5031543;28;20195;-51
2022/03/11 00:08:21;;;;;;;16.33;11.93;;;8.00;45.00;;;10.24;38.75;102364.69;5033052;28;20217;-50
2022/03/11 00:10:48;;;;;;;14.80;11.47;;;8.00;44.90;;;10.20;38.47;102363.25;5033231;28;20190;-49
2022/03/11 00:13:15;;;;;;;14.87;12.03;;;8.00;44.80;;;10.19;39.02;102361.59;5033075;28;20183;-51
2022/03/11 00:15:43;;;;;;;14.80;10.83;;;7.90;44.80;;;10.15;38.72;102365.44;5032871;28;20278;-48
2022/03/11 00:18:10;;;;;;;13.73;10.97;;;7.90;44.80;;;10.07;38.52;102362.63;5032827;28;20280;-49
2022/03/11 00:20:38;;;;;;;12.90;11.23;;;7.80;44.70;;;10.07;38.71;102363.47;5032990;28;20240;-50
2022/03/11 00:23:05;;;;;;;13.73;10.73;;;7.80;44.70;;;10.03;38.25;102363.84;5026707;28;20187;-51
2022/03/11 00:25:34;;;;;;;13.77;11.30;;;7.80;44.50;;;10.02;38.44;102354.28;5016886;28;20650;-49
2022/03/11 00:28:02;;;;;;;13.67;11.37;;;7.80;44.50;;;10.00;38.69;102361.47;5028952;28;20242;-51
2022/03/11 00:30:30;;;;;;;13.77;11.63;;;7.70;44.40;;;9.92;38.27;102356.03;5036028;28;20205;-49
2022/03/11 00:32:57;;;;;;;13.00;11.07;;;7.70;44.40;;;9.88;38.47;102363.38;5037527;28;20262;-51
2022/03/11 00:35:24;;;;;;;14.07;11.07;;;7.60;44.30;;;9.85;38.67;102360.97;5037870;28;20251;-49
2022/03/11 00:37:52;;;;;;;11.13;9.83;;;7.60;44.30;;;9.88;38.11;102360.72;5037027;28;20274;-51
2022/03/11 00:40:19;;;;;;;15.50;10.73;;;7.60;44.30;;;9.87;38.38;102371.34;5049912;28;20198;-50
2022/03/11 00:42:47;;;;;;;13.37;11.57;;;7.60;44.30;;;9.74;38.35;102370.75;5054752;28;20193;-49
2022/03/11 00:45:15;;;;;;;12.80;10.10;;;7.50;44.20;;;9.74;38.35;102370.75;5053836;28;20237;-49
2022/03/11 00:47:42;;;;;;;12.63;10.20;;;7.50;44.00;;;9.77;38.17;102365.22;5054553;28;20772;-51
2022/03/11 00:50:10;;;;;;;15.77;10.63;;;7.50;44.10;;;9.76;37.83;102368.81;5055265;28;20218;-50
2022/03/11 00:52:41;;;;;;;12.70;10.40;;;7.40;44.00;;;9.77;37.97;102375.75;5039819;28;20679;-49
2022/03/11 00:55:10;;;;;;;12.80;10.17;;;7.40;43.90;;;9.69;37.89;102370.28;5035640;28;20175;-49
2022/03/11 00:57:38;;;;;;;12.03;10.23;;;7.40;43.90;;;9.58;37.96;102365.09;5035343;28;20563;-47
2022/03/11 01:00:09;;;;;;;12.10;9.83;;;7.30;43.80;;;9.55;38.14;102372.25;5036122;28;20656;-49
2022/03/11 01:02:38;;;;;;;16.53;10.30;;;7.30;43.80;;;9.60;37.92;102363.19;5036279;28;20195;-48
2022/03/11 01:05:07;;;;;;;13.13;10.50;;;7.30;43.80;;;9.57;37.79;102363.41;5036000;28;20214;-51
2022/03/11 01:07:35;;;;;;;11.33;9.17;;;7.30;43.80;;;9.59;37.75;102364.13;5042270;28;20584;-51
2022/03/11 01:10:05;;;;;;;13.00;10.07;;;7.20;43.70;;;9.54;37.85;102360.09;5036248;28;20190;-50
2022/03/11 01:12:33;;;;;;;13.43;10.63;;;7.20;43.70;;;9.51;37.65;102360.34;5033925;28;20196;-50
2022/03/11 01:15:00;;;;;;;12.97;10.43;;;7.20;43.70;;;9.52;37.90;102359.41;5035838;28;20191;-48
2022/03/11 01:17:29;;;;;;;12.33;10.30;;;7.20;43.70;;;9.54;37.90;102359.25;5035440;28;20602;-48
2022/03/11 01:19:56;;;;;;;14.77;9.40;;;7.10;43.60;;;9.54;37.60;102359.25;5035854;28;20193;-48
2022/03/11 01:22:24;;;;;;;13.80;9.20;;;7.10;43.50;;;9.53;37.53;102349.72;5035177;28;20206;-47
2022/03/11 01:24:51;;;;;;;14.20;9.80;;;7.10;43.50;;;9.54;37.54;102352.22;5036696;28;20215;-48
2022/03/11 01:27:19;;;;;;;11.70;9.17;;;7.10;43.50;;;9.49;37.73;102350.91;5041963;28;20253;-51
2022/03/11 01:29:46;;;;;;;14.27;10.53;;;7.10;43.50;;;9.41;37.49;102353.38;5028944;28;20218;-47
2022/03/11 01:32:14;;;;;;;12.23;9.90;;;7.00;43.50;;;9.40;37.76;102346.44;5017110;28;20203;-48
2022/03/11 01:34:42;;;;;;;12.80;10.40;;;7.10;43.50;;;9.39;37.46;102350.00;5015574;28;20193;-47
2022/03/11 01:37:09;;;;;;;12.57;10.03;;;7.00;43.60;;;9.41;37.62;102353.38;5015219;28;20207;-48
2022/03/11 01:39:37;;;;;;;10.67;9.50;;;7.00;43.60;;;9.37;37.65;102351.94;5015774;28;20193;-49
2022/03/11 01:42:06;;;;;;;12.60;9.93;;;7.00;43.60;;;9.26;37.88;102344.94;5015705;28;20196;-48
2022/03/11 01:44:33;;;;;;;12.63;10.60;;;6.90;43.70;;;9.17;38.18;102350.97;5016415;28;20296;-48
2022/03/11 01:47:01;;;;;;;11.23;9.53;;;6.90;43.80;;;9.07;38.23;102343.94;5030266;28;20264;-48
2022/03/11 01:49:28;;;;;;;13.50;9.83;;;6.90;43.80;;;9.01;38.28;102345.28;5015522;28;20207;-47
2022/03/11 01:51:57;;;;;;;12.43;8.60;;;6.80;43.90;;;9.01;38.32;102340.00;5015577;28;20195;-46
2022/03/11 01:54:24;;;;;;;12.10;9.57;;;6.80;43.90;;;9.06;38.39;102343.09;5015188;28;20610;-48
2022/03/11 01:56:52;;;;;;;13.17;9.83;;;6.80;44.00;;;9.01;38.78;102333.97;5014922;28;20309;-47
2022/03/11 01:59:20;;;;;;;11.87;10.33;;;6.70;44.00;;;9.00;38.23;102340.16;5021876;28;20185;-48
2022/03/11 02:01:47;;;;;;;12.67;9.80;;;6.70;44.10;;;8.93;38.64;102331.94;5034162;28;20186;-51
2022/03/11 02:04:15;;;;;;;11.80;10.57;;;6.70;44.70;;;8.87;38.86;102337.69;5044042;28;20214;-49
2022/03/11 02:06:44;;;;;;;16.20;9.93;;;6.60;44.20;;;8.84;38.78;102327.44;5044101;28;20296;-49
2022/03/11 02:09:12;;;;;;;14.33;10.60;;;6.60;44.30;;;8.83;38.76;102326.59;5043684;28;20281;-51
2022/03/11 02:11:40;;;;;;;12.37;8.93;;;6.60;44.40;;;8.86;38.76;102325.53;5043930;28;20192;-48
2022/03/11 02:14:07;;;;;;;12.93;10.03;;;6.60;44.50;;;8.82;38.83;102318.84;5043830;28;20195;-48
2022/03/11 02:16:37;;;;;;;12.43;10.27;;;6.60;44.70;;;8.73;39.05;102319.59;5050940;28;20225;-50
2022/03/11 02:19:05;;;;;;;15.53;11.30;;;6.50;44.70;;;8.62;39.31;102323.09;5048612;28;20198;-51
2022/03/11 02:21:43;;;;;;;12.30;10.17;;;6.40;44.80;;;8.64;39.18;102320.31;5052793;28;20218;-48
2022/03/11 02:24:14;;;;;;;12.60;9.77;;;6.40;44.80;;;8.69;39.14;102319.00;5052903;28;20203;-48
2022/03/11 02:26:42;;;;;;;14.07;10.10;;;6.40;44.80;;;8.70;39.02;102317.22;5054496;28;20210;-48
2022/03/11 02:29:10;;;;;;;15.13;10.67;;;6.40;45.00;;;8.66;39.39;102315.78;5053795;28;20200;-49
2022/03/11 02:31:37;;;;;;;13.87;9.90;;;6.40;45.10;;;8.66;39.22;102307.91;5048723;28;20199;-50
2022/03/11 02:34:05;;;;;;;13.47;9.70;;;6.40;45.20;;;8.69;39.11;102302.44;5047920;28;20186;-51
2022/03/11 02:36:32;;;;;;;12.03;9.27;;;6.40;45.20;;;8.73;39.10;102307.31;5027819;28;20291;-51
2022/03/11 02:39:00;;;;;;;12.10;10.23;;;6.40;45.20;;;8.75;39.17;102299.28;5024458;28;20198;-50
2022/03/11 02:41:29;;;;;;;12.80;9.57;;;6.30;45.30;;;8.76;38.85;102298.34;5021924;28;20192;-49
2022/03/11 02:43:56;;;;;;;14.73;10.90;;;6.30;45.30;;;8.75;38.61;102294.03;5018787;28;20219;-51
2022/03/11 02:46:23;;;;;;;17.00;10.50;;;6.30;45.30;;;8.74;39.01;102287.97;5017557;28;20221;-49
2022/03/11 02:48:51;;;;;;;12.60;9.53;;;6.30;45.10;;;8.74;38.48;102289.78;5018777;28;20227;-51
2022/03/11 02:51:18;;;;;;;15.17;9.40;;;6.30;45.00;;;8.72;38.86;102286.44;5017929;28;20406;-49
2022/03/11 02:53:45;;;;;;;14.20;8.60;;;6.30;45.00;;;8.69;38.93;102287.53;5018724;28;20279;-47
2022/03/11 02:56:13;;;;;;;11.87;9.57;;;6.30;45.00;;;8.73;38.45;102283.69;5015053;28;20195;-51
2022/03/11 02:58:42;;;;;;;13.13;10.03;;;6.30;45.10;;;8.77;38.65;102277.22;5016762;28;20191;-52
2022/03/11 03:01:10;;;;;;;13.93;9.90;;;6.30;45.10;;;8.74;38.84;102284.53;5017632;28;20188;-48
2022/03/11 03:03:37;;;;;;;12.20;10.07;;;6.20;44.90;;;8.71;38.53;102279.50;5017233;28;20193;-49
2022/03/11 03:06:05;;;;;;;11.17;9.50;;;6.30;44.90;;;8.71;38.46;102279.50;5017880;28;20226;-49
2022/03/11 03:08:33;;;;;;;13.03;9.83;;;6.20;44.80;;;8.72;38.85;102282.00;5031705;28;20196;-49
2022/03/11 03:11:00;;;;;;;14.03;9.70;;;6.20;45.50;;;8.66;38.54;102279.03;5042935;28;20557;-49
2022/03/11 03:13:28;;;;;;;12.33;9.33;;;6.20;44.70;;;8.67;38.50;102272.84;5039817;28;20195;-49
2022/03/11 03:15:57;;;;;;;13.90;9.67;;;6.20;44.70;;;8.62;38.49;102275.00;5039555;28;20199;-49
2022/03/11 03:18:24;;;;;;;13.10;9.03;;;6.20;44.60;;;8.56;38.58;102273.69;5039487;28;20764;-49
2022/03/11 03:20:52;;;;;;;12.63;8.77;;;6.10;44.50;;;8.55;38.60;102273.84;5046909;28;20253;-50
2022/03/11 03:23:19;;;;;;;12.27;9.47;;;6.10;44.60;;;8.47;38.34;102265.72;5045021;28;20216;-48
2022/03/11 03:25:46;;;;;;;13.27;8.80;;;6.10;44.60;;;8.43;38.56;102272.19;5028413;28;20308;-52
2022/03/11 03:28:14;;;;;;;11.60;8.83;;;6.00;44.40;;;8.38;38.49;102271.72;5024665;28;20303;-49
2022/03/11 03:30:41;;;;;;;10.17;8.40;;;6.00;44.40;;;8.36;38.63;102274.47;5021736;28;20195;-48
2022/03/11 03:33:09;;;;;;;13.03;9.00;;;6.00;44.50;;;8.26;38.66;102277.91;5013989;28;20267;-49
2022/03/11 03:35:38;;;;;;;11.60;8.73;;;5.90;44.50;;;8.16;38.60;102273.41;5017314;28;20226;-47
2022/03/11 03:38:06;;;;;;;14.13;9.70;;;5.90;44.50;;;8.03;39.40;102275.31;5025263;28;20211;-49
2022/03/11 03:40:33;;;;;;;10.50;8.27;;;5.80;44.60;;;8.01;38.97;102269.34;5018290;28;20610;-46
2022/03/11 03:43:01;;;;;;;13.20;8.90;;;5.80;44.70;;;7.98;39.54;102269.59;5014533;28;20226;-49
2022/03/11 03:45:30;;;;;;;11.53;8.50;;;5.70;44.80;;;7.95;39.06;102269.84;5013410;28;20717;-48
2022/03/11 03:47:59;;;;;;;9.93;8.17;;;5.70;44.80;;;7.93;39.46;102268.28;5013314;28;20238;-49
2022/03/11 03:50:29;;;;;;;11.47;8.13;;;5.70;44.90;;;7.86;38.92;102267.94;5013605;28;20195;-48
2022/03/11 03:52:56;;;;;;;11.03;8.53;;;5.60;45.00;;;7.85;39.17;102258.41;5013723;28;20187;-49
2022/03/11 03:55:24;;;;;;;11.10;8.43;;;5.60;45.10;;;7.87;39.28;102256.47;5013965;28;20604;-48
2022/03/11 03:57:51;;;;;;;10.87;7.90;;;5.50;45.00;;;7.81;39.46;102267.47;5017619;28;20379;-48
2022/03/11 04:00:18;;;;;;;13.43;8.10;;;5.50;45.10;;;7.82;39.44;102258.63;5017376;28;20561;-47
2022/03/11 04:02:47;;;;;;;10.10;7.87;;;5.50;45.20;;;7.81;38.98;102243.88;5017910;28;20185;-46
2022/03/11 04:05:16;;;;;;;13.80;7.90;;;5.50;45.10;;;7.86;38.90;102239.13;5017762;28;20220;-47
2022/03/11 04:07:46;;;;;;;10.27;7.67;;;5.50;45.00;;;7.87;38.65;102239.91;5018118;28;20208;-47
2022/03/11 04:10:15;;;;;;;11.20;8.37;;;5.40;44.90;;;7.86;38.33;102233.88;5018697;28;20203;-49
2022/03/11 04:12:42;;;;;;;11.47;7.70;;;5.50;44.70;;;7.92;38.85;102237.78;5020712;28;20202;-49
2022/03/11 04:15:11;;;;;;;10.47;7.83;;;5.40;44.60;;;7.96;38.53;102240.03;5037503;28;20196;-48
2022/03/11 04:17:39;;;;;;;9.33;7.20;;;5.40;44.40;;;7.95;38.24;102237.53;5036647;28;20318;-46
2022/03/11 04:20:09;;;;;;;11.43;6.90;;;5.40;44.30;;;7.93;37.95;102237.69;5037162;28;20223;-46
2022/03/11 04:22:41;;;;;;;11.80;7.87;;;5.40;44.10;;;7.88;37.81;102231.13;5037111;28;20194;-48
2022/03/11 04:25:12;;;;;;;11.57;7.87;;;5.40;44.00;;;7.86;38.11;102220.75;5037237;28;20221;-47
2022/03/11 04:27:41;;;;;;;9.57;7.50;;;5.40;43.90;;;7.81;38.14;102225.53;5036962;28;20210;-46
2022/03/11 04:30:09;;;;;;;9.27;6.97;;;5.40;43.90;;;7.79;38.22;102222.19;5036376;28;20198;-47
2022/03/11 04:32:37;;;;;;;10.77;7.20;;;5.40;43.80;;;7.78;38.04;102224.91;5036697;28;20203;-48
2022/03/11 04:35:05;;;;;;;12.33;6.93;;;5.30;43.80;;;7.74;38.46;102213.00;5035390;28;20199;-48
2022/03/11 04:37:33;;;;;;;10.00;7.30;;;5.30;43.80;;;7.69;38.26;102216.00;5036074;28;20215;-47
2022/03/11 04:40:00;;;;;;;8.17;6.63;;;5.30;43.80;;;7.66;38.30;102210.16;5036884;28;20197;-47
2022/03/11 04:42:29;;;;;;;10.97;7.50;;;5.20;43.70;;;7.67;38.35;102211.84;5036955;28;20281;-47
2022/03/11 04:44:56;;;;;;;7.70;6.57;;;5.20;43.90;;;7.68;38.30;102216.94;5037686;28;20633;-48
2022/03/11 04:47:24;;;;;;;13.77;6.70;;;5.20;43.70;;;7.63;38.22;102221.69;5019450;28;20211;-47
2022/03/11 04:49:52;;;;;;;10.23;7.27;;;5.20;43.60;;;7.58;38.54;102229.09;5017287;28;20725;-47
2022/03/11 04:52:19;;;;;;;10.40;7.23;;;5.20;43.60;;;7.51;38.49;102227.91;5017248;28;20276;-47
2022/03/11 04:54:47;;;;;;;10.80;7.97;;;5.10;43.40;;;7.49;38.52;102241.09;5017227;28;20205;-47
2022/03/11 04:57:14;;;;;;;9.53;7.53;;;5.10;43.60;;;7.39;37.68;102241.94;5017656;28;20211;-46
2022/03/11 04:59:44;;;;;;;10.47;7.47;;;5.10;43.50;;;7.36;38.10;102235.16;5031663;28;20178;-49
2022/03/11 05:02:11;;;;;;;10.53;7.30;;;5.10;43.50;;;7.36;38.26;102234.31;5040394;28;20705;-48
2022/03/11 05:04:38;;;;;;;9.77;7.40;;;5.00;43.40;;;7.37;38.05;102231.56;5037124;28;20215;-47
2022/03/11 05:07:07;;;;;;;9.77;6.00;;;5.00;43.60;;;7.34;38.60;102230.97;5037092;28;20676;-47
2022/03/11 05:09:35;;;;;;;10.10;6.77;;;5.00;43.60;;;7.26;38.74;102225.47;5036582;28;20247;-48
2022/03/11 05:12:03;;;;;;;11.37;8.03;;;4.90;43.50;;;7.27;38.53;102216.69;5038332;28;20211;-47
2022/03/11 05:14:30;;;;;;;9.13;6.70;;;4.90;43.70;;;7.27;38.54;102222.72;5038451;28;20666;-48
2022/03/11 05:16:58;;;;;;;9.07;7.53;;;4.90;43.50;;;7.31;38.32;102225.97;5036482;28;20419;-46
2022/03/11 05:19:26;;;;;;;9.63;6.70;;;4.90;43.60;;;7.32;37.82;102222.41;5025309;28;20227;-47
2022/03/11 05:21:53;;;;;;;10.33;7.27;;;4.90;43.70;;;7.29;38.06;102233.94;5016814;28;20302;-47
2022/03/11 05:24:21;;;;;;;12.20;7.63;;;4.90;43.70;;;7.28;38.07;102242.75;5016494;28;20191;-47
2022/03/11 05:26:49;;;;;;;10.83;6.77;;;4.90;43.80;;;7.26;37.92;102234.16;5016688;28;20655;-48
2022/03/11 05:29:16;;;;;;;9.13;6.47;;;4.80;43.70;;;7.28;38.19;102231.44;5017806;28;20553;-49
2022/03/11 05:31:43;;;;;;;12.70;8.23;;;4.80;43.60;;;7.28;37.76;102241.91;5017537;28;20203;-50
2022/03/11 05:34:12;;;;;;;10.27;7.63;;;4.80;43.70;;;7.15;37.96;102246.41;5017960;28;20198;-49
2022/03/11 05:36:39;;;;;;;11.77;8.03;;;4.80;44.00;;;7.13;38.34;102237.84;5039098;28;20255;-59
2022/03/11 05:39:06;;;;;;;10.83;7.17;;;4.70;43.80;;;7.05;38.18;102234.94;5042633;28;20191;-57
2022/03/11 05:41:34;;;;;;;10.00;6.87;;;4.70;43.90;;;7.01;38.31;102228.28;5041694;28;20190;-50
2022/03/11 05:44:01;;;;;;;10.27;7.67;;;4.70;43.90;;;7.02;38.80;102233.41;5042757;28;20195;-51
2022/03/11 05:46:28;;;;;;;10.40;7.43;;;4.70;44.20;;;7.05;38.95;102234.94;5041399;28;20224;-56
2022/03/11 05:48:56;;;;;;;10.90;7.83;;;4.70;44.30;;;7.08;38.68;102224.25;5040329;28;20211;-47
2022/03/11 05:51:24;;;;;;;9.77;7.33;;;4.70;44.50;;;7.10;38.30;102220.56;5039820;28;20275;-48
2022/03/11 05:53:52;;;;;;;13.37;7.60;;;4.70;44.30;;;7.11;38.15;102229.25;5042076;28;20195;-52
2022/03/11 05:56:20;;;;;;;11.47;7.97;;;4.70;44.20;;;7.09;38.61;102226.75;5040708;28;20191;-56
2022/03/11 05:58:50;;;;;;;13.57;7.93;;;4.70;44.20;;;7.12;38.00;102229.16;5041048;28;20199;-49
2022/03/11 06:01:17;;;;;;;12.27;8.07;;;4.70;44.20;;;7.16;37.83;102229.72;5044192;28;20260;-58
2022/03/11 06:03:48;;;;;;;9.60;7.57;;;4.70;44.20;;;7.21;38.32;102232.84;5046199;28;20665;-58
2022/03/11 06:06:16;;;;;;;12.50;8.13;;;4.70;44.20;;;7.22;38.52;102232.75;5042075;28;20199;-55
2022/03/11 06:08:45;;;;;;;10.17;8.00;;;4.70;44.10;;;7.21;38.42;102230.22;5038541;28;20197;-51
2022/03/11 06:11:16;;;;;;;11.43;8.37;;;4.70;44.30;;;7.17;38.93;102234.03;5042603;28;20184;-60
2022/03/11 06:13:44;;;;;;;12.57;8.40;;;4.70;44.10;;;7.14;38.21;102234.25;5044916;28;20262;-67
2022/03/11 06:16:11;;;;;;;11.57;8.13;;;4.70;44.00;;;7.12;38.57;102233.53;5042974;28;20230;-65
2022/03/11 06:18:39;;;;;;;10.67;7.60;;;4.70;44.10;;;7.11;38.24;102232.69;5043307;28;20198;-56
2022/03/11 06:21:08;;;;;;;11.73;8.13;;;4.70;44.10;;;7.15;38.50;102233.31;5041486;28;20254;-64
2022/03/11 06:23:36;;;;;;;11.10;7.63;;;4.70;44.30;;;7.17;37.96;102247.13;5041717;28;20672;-62
2022/03/11 06:26:05;;;;;;;9.40;8.00;;;4.70;44.20;;;7.17;38.79;102247.13;5021869;28;20291;-58
2022/03/11 06:28:32;;;;;;;13.30;8.73;;;4.70;44.10;;;7.18;38.52;102248.81;5023534;28;20205;-62
2022/03/11 06:30:59;;;;;;;12.07;7.90;;;4.70;44.00;;;7.20;37.98;102244.28;5026487;28;20262;-56
2022/03/11 06:33:27;;;;;;;11.13;8.57;;;4.70;44.00;;;7.19;38.42;102247.84;5025728;28;20206;-50
2022/03/11 06:35:54;;;;;;;9.83;7.90;;;4.70;44.00;;;7.10;38.21;102252.00;5026700;28;20191;-52
2022/03/11 06:38:24;;;;;;;11.40;8.83;;;4.60;43.80;;;7.00;38.93;102243.16;5025887;28;20239;-56
2022/03/11 06:40:51;;;;;;;13.80;8.53;;;4.70;43.80;;;7.02;38.87;102249.09;5034861;28;20212;-47
2022/03/11 06:43:21;;;;;;;11.60;7.73;;;4.70;43.90;;;7.05;38.33;102248.03;5049017;28;20206;-47
2022/03/11 06:45:49;;;;;;;14.17;9.40;;;4.70;43.90;;;7.11;38.68;102234.47;5049337;28;20298;-49
2022/03/11 06:48:21;;;;;;;14.33;10.13;;;4.70;43.50;;;7.12;37.96;102249.25;5050601;28;20218;-48
2022/03/11 06:50:48;;;;;;;11.07;8.37;;;4.70;43.70;;;7.14;38.62;102234.25;5049804;28;20278;-46
2022/03/11 06:53:17;;;;;;;12.33;8.53;;;4.70;43.70;;;7.26;38.27;102243.81;5051812;28;20559;-48
2022/03/11 06:55:45;;;;;;;10.20;8.00;;;4.70;43.80;;;7.34;38.10;102236.22;5048419;28;20202;-47
2022/03/11 06:58:12;;;;;;;11.20;8.57;;;4.80;43.80;;;7.38;37.60;102242.88;5026612;28;20276;-54
2022/03/11 07:00:41;;;;;;;15.00;8.57;;;4.80;43.50;;;7.46;37.29;102248.38;5024604;28;20284;-48
2022/03/11 07:03:08;;;;;;;11.90;9.27;;;4.90;43.40;;;7.59;37.08;102246.47;5019113;28;20664;-48
2022/03/11 07:05:36;;;;;;;14.23;8.93;;;5.00;43.20;;;7.58;37.21;102243.97;5018756;28;20219;-47
2022/03/11 07:08:04;;;;;;;13.10;9.07;;;5.00;42.60;;;7.69;36.87;102250.06;5018569;28;20223;-51
2022/03/11 07:10:32;;;;;;;9.97;7.40;;;5.20;42.40;;;7.89;36.30;102249.34;5019790;28;20223;-50
2022/03/11 07:12:59;;;;;;;12.13;8.30;;;5.40;42.10;;;8.17;36.45;102248.84;5029534;28;20281;-48
2022/03/11 07:15:26;;;;;;;11.97;8.13;;;5.60;41.80;;;8.45;35.70;102247.50;5039457;28;20193;-53
2022/03/11 07:17:55;;;;;;;11.13;8.83;;;5.90;41.20;;;8.80;34.94;102252.50;5040251;28;20296;-50
2022/03/11 07:20:23;;;;;;;14.77;9.13;;;6.20;40.40;;;9.06;34.37;102255.59;5041378;28;20190;-50
2022/03/11 07:23:16;;;;;;;18.07;9.37;;;6.40;39.60;;;9.22;33.77;102238.44;5041341;28;20205;-49
2022/03/11 07:25:44;;;;;;;16.03;9.40;;;6.70;38.60;;;9.44;33.37;102243.56;5043369;28;20205;-50
2022/03/11 07:28:11;;;;;;;19.17;9.10;;;6.90;38.20;;;9.66;33.10;102239.09;5038483;28;20297;-51
2022/03/11 07:30:39;;;;;;;16.00;9.03;;;7.20;37.70;;;9.91;32.84;102243.94;5021745;28;20255;-48
2022/03/11 07:33:11;;;;;;;12.87;9.33;;;7.40;37.20;;;9.98;32.47;102250.31;5023245;28;20679;-50
2022/03/11 07:35:39;;;;;;;11.23;8.73;;;7.50;36.60;;;9.75;32.56;102244.41;5025323;28;20246;-50
2022/03/11 07:38:06;;;;;;;9.80;8.30;;;7.50;35.80;;;9.63;33.02;102249.91;5023615;28;20214;-51
2022/03/11 07:40:34;;;;;;;13.53;8.73;;;7.50;35.80;;;9.76;32.55;102239.97;5028544;28;20198;-48
2022/03/11 07:43:02;;;;;;;13.37;8.97;;;7.50;35.80;;;9.86;32.65;102238.22;5031090;28;20234;-52
2022/03/11 07:45:30;;;;;;;14.07;9.53;;;7.60;35.70;;;10.03;32.63;102240.22;5030369;28;20723;-50
2022/03/11 07:47:57;;;;;;;13.03;8.73;;;7.70;35.60;;;9.98;32.22;102250.31;5038199;28;20293;-50
2022/03/11 07:50:27;;;;;;;12.27;7.97;;;7.70;35.00;;;10.02;31.68;102238.56;5038933;28;20198;-49
2022/03/11 07:52:54;;;;;;;14.10;9.43;;;7.80;34.90;;;10.04;31.89;102226.94;5038761;28;20225;-49
2022/03/11 07:55:22;;;;;;;13.33;8.93;;;7.80;34.30;;;10.01;31.78;102229.00;5038705;28;20233;-48
2022/03/11 07:57:49;;;;;;;13.33;9.30;;;7.80;34.80;;;9.93;31.95;102234.09;5038293;28;20218;-50
2022/03/11 08:00:18;;;;;;;14.23;9.43;;;7.80;34.10;;;9.96;31.62;102239.09;5039382;28;20270;-51
2022/03/11 08:02:45;;;;;;;14.63;9.10;;;7.90;34.00;;;9.76;31.93;102237.34;5029278;28;20222;-49
2022/03/11 08:05:15;;;;;;;13.20;8.93;;;7.80;33.80;;;10.05;31.48;102228.63;5022996;28;20198;-48
2022/03/11 08:07:48;;;;;;;10.93;7.83;;;7.90;34.20;;;10.43;31.35;102222.63;5021438;28;20253;-49
2022/03/11 08:10:16;;;;;;;18.27;9.87;;;8.10;34.10;;;10.63;30.34;102213.75;5022459;28;20172;-50
2022/03/11 08:12:43;;;;;;;13.10;9.10;;;8.20;33.30;;;10.68;30.19;102208.91;5021744;28;20191;-48
2022/03/11 08:15:12;;;;;;;14.17;9.10;;;8.30;32.60;;;10.84;30.26;102211.81;5022113;28;20194;-52
2022/03/11 08:17:40;;;;;;;9.70;7.73;;;8.50;32.40;;;11.08;29.52;102207.91;5022231;28;20281;-49
2022/03/11 08:20:09;;;;;;;14.60;9.07;;;8.70;32.20;;;11.25;29.24;102194.00;5040579;28;20277;-50
2022/03/11 08:22:37;;;;;;;15.53;9.07;;;8.80;31.90;;;11.32;29.15;102195.06;5042569;28;20257;-48
2022/03/11 08:25:09;;;;;;;13.33;8.60;;;8.90;31.50;;;11.73;29.06;102189.41;5039594;28;20609;-48
2022/03/11 08:27:39;;;;;;;12.43;9.00;;;9.10;31.40;;;12.29;27.94;102181.28;5036251;28;20537;-48
2022/03/11 08:30:09;;;;;;;13.60;9.20;;;9.40;31.60;;;12.83;27.35;102181.13;5036312;28;20191;-48
2022/03/11 08:32:36;;;;;;;9.77;8.37;;;9.80;30.40;;;12.89;26.52;102200.81;5036746;28;20202;-48
2022/03/11 08:35:06;;;;;;;12.80;9.23;;;9.90;29.20;;;12.95;26.30;102179.06;5037406;28;20202;-52
2022/03/11 08:37:39;;;;;;;12.47;8.80;;;10.10;28.00;;;13.47;26.45;102174.63;5038829;28;20229;-48
2022/03/11 08:40:12;;;;;;;11.53;8.40;;;10.50;28.20;;;13.75;25.98;102188.47;5035631;28;20256;-49
2022/03/11 08:42:41;;;;;;;9.97;7.67;;;10.70;27.60;;;13.80;25.21;102186.16;5035246;28;20310;-50
2022/03/11 08:45:10;;;;;;;12.80;8.83;;;10.90;27.00;;;14.11;24.77;102179.31;5038707;28;20191;-47
2022/03/11 08:47:43;;;;;;;10.20;9.00;;;11.10;26.60;;;14.30;24.69;102176.41;5039641;28;20217;-50
2022/03/11 08:50:11;;;;;;;11.73;8.77;;;11.40;26.30;;;14.70;23.92;102180.91;5039195;28;20229;-47
2022/03/11 08:52:38;;;;;;;11.57;8.30;;;11.60;25.90;;;14.91;23.61;102174.09;5036187;28;20342;-49
2022/03/11 08:55:09;;;;;;;11.07;8.37;;;11.80;25.50;;;15.31;23.39;102170.53;5037903;28;20197;-49
2022/03/11 08:57:37;;;;;;;11.90;8.90;;;12.10;25.50;;;15.96;23.27;102181.78;5036571;28;20214;-49
2022/03/11 09:00:12;;;;;;;15.53;9.67;;;12.50;25.70;;;16.21;22.49;102174.50;5037606;28;20186;-49
2022/03/11 09:02:39;;;;;;;10.37;8.50;;;12.70;24.40;;;16.64;21.47;102162.44;5038777;28;20598;-48
2022/03/11 09:05:09;;;;;;;12.53;9.20;;;13.20;24.00;;;17.01;21.24;102167.72;5037957;28;20284;-50
2022/03/11 09:07:36;;;;;;;11.77;8.50;;;13.50;23.60;;;17.51;21.16;102157.22;5035251;28;20234;-50
2022/03/11 09:10:09;;;;;;;10.30;9.07;;;13.90;23.40;;;18.11;20.23;102158.75;5016741;28;20195;-51
2022/03/11 09:12:37;;;;;;;8.73;7.67;;;14.30;23.10;;;18.80;19.68;102162.53;5016192;28;20205;-49
2022/03/11 09:15:06;;;;;;;13.87;11.37;;;14.70;22.80;;;18.96;18.97;102143.53;5017729;28;20218;-49
2022/03/11 09:17:34;;;;;;;10.33;8.47;;;15.00;21.20;;;18.91;18.78;102148.63;5017132;28;20215;-49
2022/03/11 09:20:03;;;;;;;11.13;9.13;;;15.20;20.70;;;18.99;18.97;102145.00;5017591;28;20350;-48
2022/03/11 09:22:50;;;;;;;13.37;8.00;;;15.40;20.90;;;19.23;18.37;102147.22;5017687;28;20191;-51
2022/03/11 09:25:19;;;;;;;9.90;8.27;;;15.50;20.50;;;19.51;18.16;102135.47;5018789;28;20657;-48
2022/03/11 09:27:47;;;;;;;10.50;8.17;;;15.80;20.60;;;19.63;17.54;102142.91;5016269;28;20226;-49
2022/03/11 09:30:14;;;;;;;11.77;7.97;;;15.80;19.80;;;19.51;17.79;102140.00;5016425;28;20597;-50
2022/03/11 09:32:42;;;;;;;9.77;8.50;;;15.90;19.60;;;19.59;17.82;102121.09;5016546;28;20214;-50
2022/03/11 09:35:10;;;;;;;10.13;7.97;;;16.00;19.80;;;19.97;18.01;102140.97;5016762;28;20391;-49
2022/03/11 09:37:37;;;;;;;13.70;10.23;;;16.20;19.80;;;20.21;17.78;102121.69;5016689;28;20207;-50
2022/03/11 09:40:07;;;;;;;10.43;8.10;;;16.40;19.60;;;20.55;17.03;102133.28;5017728;28;20195;-49
2022/03/11 09:42:36;;;;;;;13.23;8.23;;;16.50;18.90;;;20.91;16.48;102117.59;5018282;28;20233;-48
2022/03/11 09:45:05;;;;;;;13.93;8.77;;;16.80;19.00;;;21.20;16.12;102127.88;5016934;28;20298;-51
2022/03/11 09:47:34;;;;;;;11.77;8.60;;;17.10;18.70;;;21.63;15.75;102125.47;5018121;28;20314;-49
2022/03/11 09:50:02;;;;;;;11.50;8.20;;;17.30;18.30;;;21.45;16.07;102126.13;5016770;28;20249;-49
2022/03/11 09:52:32;;;;;;;10.10;8.80;;;17.40;17.90;;;21.29;16.08;102120.44;5017385;28;20214;-51
2022/03/11 09:54:59;;;;;;;8.80;7.90;;;17.40;17.70;;;21.35;15.55;102114.22;5017322;28;20218;-50
2022/03/11 09:57:27;;;;;;;10.33;7.80;;;17.40;17.60;;;21.37;15.42;102110.28;5020899;28;20218;-49
2022/03/11 09:59:56;;;;;;;10.60;8.43;;;17.60;17.60;;;21.61;15.53;102105.28;5036768;28;20207;-52
2022/03/11 10:02:24;;;;;;;9.43;8.37;;;17.70;17.60;;;22.10;15.87;102098.19;5035647;28;20214;-49
2022/03/11 10:04:56;;;;;;;10.03;7.53;;;17.90;18.10;;;22.43;15.32;102076.47;5035666;28;20191;-49
2022/03/11 10:07:44;;;;;;;13.27;7.80;;;18.10;17.30;;;22.56;14.93;102076.34;5035900;28;20241;-50
2022/03/11 10:10:15;;;;;;;10.17;7.93;;;18.30;17.10;;;22.76;14.47;102077.03;5036601;28;20606;-50
2022/03/11 10:13:03;;;;;;;8.53;7.73;;;18.40;16.60;;;22.75;14.36;102077.22;5035378;28;20675;-51
2022/03/11 10:15:32;;;;;;;9.20;7.03;;;18.50;16.40;;;22.66;14.36;102076.69;5017511;28;20202;-50
2022/03/11 10:18:02;;;;;;;14.40;8.90;;;18.60;16.40;;;22.88;14.30;102061.81;5015773;28;20214;-50
2022/03/11 10:20:31;;;;;;;9.07;8.13;;;18.70;16.60;;;22.98;13.96;102060.47;5014806;28;20199;-51